createdAt,value
2022-11-21T00:00:09.282Z,43.41
2022-11-21T00:05:12.774Z,43.72
2022-11-21T00:10:17.920Z,43.82
2022-11-21T00:15:21.326Z,44.10
2022-11-21T00:20:24.708Z,43.82
2022-11-21T00:25:29.466Z,44.08
2022-11-21T00:30:32.932Z,44.03
2022-11-21T00:35:36.371Z,44.24
2022-11-21T00:40:41.100Z,43.42
2022-11-21T00:45:44.570Z,42.86
2022-11-21T00:50:49.863Z,43.57
2022-11-21T00:55:54.704Z,43.35
2022-11-21T01:01:06.752Z,43.23
2022-11-21T01:06:11.373Z,43.32
2022-11-21T01:11:17.922Z,43.56
2022-11-21T01:16:23.226Z,43.24
2022-11-21T01:21:28.060Z,44.02
2022-11-21T01:26:34.058Z,43.94
2022-11-21T01:31:37.487Z,43.67
2022-11-21T01:36:41.042Z,44.02
2022-11-21T01:41:46.485Z,43.45
2022-11-21T01:46:50.737Z,43.99
2022-11-21T01:51:58.313Z,44.29
2022-11-21T01:57:06.640Z,43.40
2022-11-21T02:02:12.161Z,43.23
2022-11-21T02:07:16.372Z,43.67
2022-11-21T02:12:24.824Z,43.69
2022-11-21T02:17:30.699Z,43.53
2022-11-21T02:22:40.768Z,45.83
2022-11-21T02:27:46.567Z,45.53
2022-11-21T02:32:50.105Z,45.45
2022-11-21T02:38:01.517Z,45.02
2022-11-21T02:43:09.737Z,44.62
2022-11-21T02:48:14.083Z,44.64
2022-11-21T02:53:19.680Z,44.71
2022-11-21T02:58:24.509Z,44.83
2022-11-21T03:03:28.064Z,44.63
2022-11-21T03:08:31.474Z,44.77
2022-11-21T03:13:36.795Z,45.35
2022-11-21T03:18:40.359Z,45.02
2022-11-21T03:23:43.870Z,45.35
2022-11-21T03:28:48.711Z,45.25
2022-11-21T03:33:52.167Z,45.79
2022-11-21T03:38:56.054Z,44.83
2022-11-21T03:44:03.186Z,44.70
2022-11-21T03:49:07.083Z,45.14
2022-11-21T03:54:10.704Z,45.08
2022-11-21T03:59:15.486Z,45.05
2022-11-21T04:04:19.209Z,45.02
2022-11-21T04:09:22.608Z,44.62
2022-11-21T04:14:27.743Z,45.12
2022-11-21T04:19:31.344Z,44.95
2022-11-21T04:24:34.746Z,45.28
2022-11-21T04:29:39.613Z,44.77
2022-11-21T04:34:43.065Z,45.41
2022-11-21T04:39:46.497Z,44.70
2022-11-21T04:44:51.316Z,44.54
2022-11-21T04:49:54.745Z,44.61
2022-11-21T04:54:58.269Z,44.96
2022-11-21T05:00:03.072Z,44.64
2022-11-21T05:05:07.395Z,44.89
2022-11-21T05:10:11.065Z,45.26
2022-11-21T05:15:20.345Z,44.70
2022-11-21T05:20:26.706Z,44.40
2022-11-21T05:25:30.196Z,44.90
2022-11-21T05:30:34.992Z,44.90
2022-11-21T05:35:43.126Z,45.20
2022-11-21T05:40:47.167Z,44.96
2022-11-21T05:45:51.955Z,45.20
2022-11-21T05:50:55.493Z,44.63
2022-11-21T05:56:03.045Z,44.78
2022-11-21T06:01:08.606Z,45.19
2022-11-21T06:06:13.482Z,46.27
2022-11-21T06:11:17.920Z,45.65
2022-11-21T06:16:22.886Z,45.37
2022-11-21T06:21:28.152Z,45.25
2022-11-21T06:26:31.717Z,44.96
2022-11-21T06:31:36.552Z,45.04
2022-11-21T06:36:40.065Z,44.87
2022-11-21T06:41:43.572Z,45.00
2022-11-21T06:46:51.144Z,44.60
2022-11-21T06:51:55.167Z,44.51
2022-11-21T06:56:59.287Z,44.49
2022-11-21T07:02:04.219Z,45.24
2022-11-21T07:07:08.114Z,45.24
2022-11-21T07:12:29.581Z,45.32
2022-11-21T07:17:34.453Z,45.08
2022-11-21T07:22:37.871Z,44.83
2022-11-21T07:27:41.914Z,45.72
2022-11-21T07:32:46.810Z,45.39
2022-11-21T07:37:50.348Z,45.19
2022-11-21T07:42:53.868Z,45.06
2022-11-21T07:48:02.611Z,45.41
2022-11-21T07:53:07.565Z,45.73
2022-11-21T07:58:13.077Z,45.86
2022-11-21T08:03:18.005Z,46.13
2022-11-21T08:08:21.536Z,46.63
2022-11-21T08:13:25.146Z,47.93
2022-11-21T08:18:30.176Z,48.58
2022-11-21T08:23:33.725Z,48.56
2022-11-21T08:28:37.273Z,47.99
2022-11-21T08:33:42.117Z,49.20
2022-11-21T08:38:45.589Z,49.12
2022-11-21T08:43:49.048Z,49.17
2022-11-21T08:48:53.939Z,49.09
2022-11-21T08:53:57.413Z,49.30
2022-11-21T08:59:00.919Z,49.40
2022-11-21T09:04:06.302Z,49.88
2022-11-21T09:09:09.941Z,48.55
2022-11-21T09:14:30.825Z,48.16
2022-11-21T09:19:35.879Z,48.98
2022-11-21T09:24:39.361Z,47.98
2022-11-21T09:29:44.111Z,47.77
2022-11-21T09:34:51.740Z,46.86
2022-11-21T09:39:55.201Z,46.76
2022-11-21T09:45:06.005Z,46.91
2022-11-21T09:50:24.053Z,46.70
2022-11-21T09:55:30.380Z,45.60
2022-11-21T10:00:34.101Z,46.48
2022-11-21T10:05:42.656Z,46.32
2022-11-21T10:10:55.761Z,45.40
2022-11-21T10:16:03.621Z,45.75
2022-11-21T10:21:13.857Z,46.35
2022-11-21T10:26:19.057Z,46.03
2022-11-21T10:31:22.935Z,45.84
2022-11-21T10:36:31.916Z,45.06
2022-11-21T10:41:41.504Z,44.57
2022-11-21T10:46:56.083Z,44.66
2022-11-21T10:52:05.275Z,48.06
2022-11-21T10:57:13.194Z,45.54
2022-11-21T11:02:25.150Z,46.05
2022-11-21T11:07:30.079Z,45.55
2022-11-21T11:12:51.617Z,46.84
2022-11-21T11:17:57.822Z,45.23
2022-11-21T11:23:16.977Z,44.87
2022-11-21T11:28:20.975Z,45.92
2022-11-21T11:33:36.382Z,44.12
2022-11-21T11:38:47.133Z,43.59
2022-11-21T11:44:11.282Z,42.86
2022-11-21T11:49:21.476Z,43.92
2022-11-21T11:54:29.093Z,43.58
2022-11-21T11:59:35.230Z,43.27
2022-11-21T12:04:43.575Z,43.22
2022-11-21T12:09:51.870Z,43.89
2022-11-21T12:15:18.200Z,42.27
2022-11-21T12:20:24.459Z,42.36
2022-11-21T12:25:31.604Z,43.37
2022-11-21T12:30:53.296Z,42.81
2022-11-21T12:36:17.398Z,41.96
2022-11-21T12:41:47.069Z,42.20
2022-11-21T12:47:00.177Z,42.76
2022-11-21T12:52:31.084Z,42.94
2022-11-21T12:57:44.288Z,43.37
2022-11-21T13:03:02.961Z,41.85
2022-11-21T13:08:12.025Z,42.29
2022-11-21T13:13:20.682Z,41.59
2022-11-21T13:18:28.028Z,40.78
2022-11-21T13:23:38.740Z,40.25
2022-11-21T13:28:44.656Z,40.41
2022-11-21T13:33:50.033Z,39.82
2022-11-21T13:39:27.256Z,39.35
2022-11-21T13:44:40.523Z,39.27
2022-11-21T13:49:49.474Z,39.07
2022-11-21T13:55:06.172Z,39.37
2022-11-21T14:00:38.472Z,39.44
2022-11-21T14:05:54.019Z,40.03
2022-11-21T14:10:58.306Z,40.60
2022-11-21T14:16:14.752Z,40.82
2022-11-21T14:21:21.664Z,40.99
2022-11-21T14:26:25.820Z,41.21
2022-11-21T14:31:30.604Z,41.21
2022-11-21T14:36:34.053Z,41.28
2022-11-21T14:41:38.503Z,41.35
2022-11-21T14:46:44.054Z,41.41
2022-11-21T14:51:49.420Z,42.00
2022-11-21T14:56:58.606Z,41.99
2022-11-21T15:02:05.265Z,42.03
2022-11-21T15:07:19.160Z,42.11
2022-11-21T15:12:28.140Z,42.57
2022-11-21T15:17:33.653Z,42.62
2022-11-21T15:22:38.933Z,43.34
2022-11-21T15:27:42.706Z,43.36
2022-11-21T15:33:05.583Z,43.46
2022-11-21T15:38:20.567Z,43.83
2022-11-21T15:43:34.967Z,43.88
2022-11-21T15:48:39.953Z,43.77
2022-11-21T15:53:43.554Z,44.06
2022-11-21T15:58:48.014Z,44.04
2022-11-21T16:03:54.497Z,44.51
2022-11-21T16:08:58.180Z,43.86
2022-11-21T16:14:03.401Z,44.50
2022-11-21T16:19:08.776Z,45.15
2022-11-21T16:24:12.204Z,45.18
2022-11-21T16:29:15.661Z,45.28
2022-11-21T16:34:21.342Z,45.08
2022-11-21T16:39:24.732Z,45.35
2022-11-21T16:44:30.760Z,45.74
2022-11-21T16:49:35.601Z,45.37
2022-11-21T16:54:39.024Z,45.56
2022-11-21T16:59:42.408Z,45.52
2022-11-21T17:04:47.221Z,45.54
2022-11-21T17:09:50.669Z,45.85
2022-11-21T17:14:54.943Z,45.91
2022-11-21T17:19:59.896Z,45.72
2022-11-21T17:25:03.383Z,46.08
2022-11-21T17:30:08.080Z,45.74
2022-11-21T17:35:12.816Z,45.57
2022-11-21T17:40:16.452Z,46.53
2022-11-21T17:45:20.157Z,46.39
2022-11-21T17:50:25.045Z,46.63
2022-11-21T17:55:28.552Z,46.76
2022-11-21T18:00:31.979Z,47.08
2022-11-21T18:05:36.885Z,46.95
2022-11-21T18:10:43.781Z,47.14
2022-11-21T18:15:48.089Z,46.98
2022-11-21T18:20:53.288Z,47.22
2022-11-21T18:25:57.338Z,47.54
2022-11-21T18:31:05.638Z,48.21
2022-11-21T18:36:12.185Z,47.97
2022-11-21T18:41:17.548Z,48.27
2022-11-21T18:46:22.188Z,48.64
2022-11-21T18:51:29.313Z,48.61
2022-11-21T18:56:32.977Z,48.57
2022-11-21T19:01:37.559Z,48.64
2022-11-21T19:06:42.543Z,47.85
2022-11-21T19:11:46.140Z,48.43
2022-11-21T19:16:50.009Z,47.89
2022-11-21T19:21:55.022Z,47.59
2022-11-21T19:26:58.598Z,48.12
2022-11-21T19:32:02.207Z,47.88
2022-11-21T19:37:07.202Z,48.72
2022-11-21T19:42:10.775Z,48.19
2022-11-21T19:47:14.639Z,48.16
2022-11-21T19:52:23.641Z,47.83
2022-11-21T19:57:30.473Z,47.54
2022-11-21T20:02:33.988Z,48.40
2022-11-21T20:07:39.173Z,47.05
2022-11-21T20:12:42.756Z,46.64
2022-11-21T20:17:50.220Z,46.82
2022-11-21T20:22:55.224Z,46.90
2022-11-21T20:27:58.930Z,47.33
2022-11-21T20:33:05.909Z,47.18
2022-11-21T20:38:13.707Z,47.22
2022-11-21T20:43:17.607Z,46.99
2022-11-21T20:48:21.189Z,47.14
2022-11-21T20:58:51.507Z,47.10
2022-11-21T21:03:55.079Z,47.31
2022-11-21T21:08:59.948Z,47.14
2022-11-21T21:14:03.467Z,47.13
2022-11-21T21:19:06.942Z,46.99
2022-11-21T21:24:12.445Z,46.59
2022-11-21T21:29:19.157Z,46.81
2022-11-21T21:34:23.543Z,47.34
2022-11-21T21:39:28.425Z,47.45
2022-11-21T21:44:33.769Z,47.80
2022-11-21T21:49:37.571Z,47.61
2022-11-21T21:54:42.416Z,47.83
2022-11-21T21:59:46.000Z,48.17
2022-11-21T22:04:52.110Z,48.00
2022-11-21T22:09:57.282Z,48.31
2022-11-21T22:15:00.870Z,48.33
2022-11-21T22:20:04.826Z,48.80
2022-11-21T22:25:10.484Z,48.57
2022-11-21T22:30:14.430Z,48.39
2022-11-21T22:35:17.797Z,49.41
2022-11-21T22:40:22.726Z,49.54
2022-11-21T22:45:26.237Z,49.51
2022-11-21T22:50:30.036Z,49.67
2022-11-21T22:55:34.846Z,49.96
2022-11-21T23:00:38.470Z,49.49
2022-11-21T23:05:41.984Z,49.14
2022-11-21T23:10:46.878Z,49.31
2022-11-21T23:15:50.294Z,49.87
2022-11-21T23:20:53.932Z,50.17
2022-11-21T23:25:58.822Z,50.31
2022-11-21T23:31:02.493Z,50.47
2022-11-21T23:36:06.348Z,50.42
2022-11-21T23:41:11.462Z,49.81
2022-11-21T23:46:14.934Z,50.38
2022-11-21T23:51:18.526Z,50.22
2022-11-21T23:56:23.355Z,49.85
